sensor_id;sensor_type;location;lat;lon;timestamp;temperature;humidity
1447;DHT22;717;51.522;7.266;2023-08-06T00:01:56;21.00;99.90
1447;DHT22;717;51.522;7.266;2023-08-06T00:04:26;21.00;99.90
1447;DHT22;717;51.522;7.266;2023-08-06T00:06:56;20.90;99.90
1447;DHT22;717;51.522;7.266;2023-08-06T00:09:26;20.90;99.90
1447;DHT22;717;51.522;7.266;2023-08-06T00:11:59;20.90;99.90
1447;DHT22;717;51.522;7.266;2023-08-06T00:14:29;20.90;99.90
1447;DHT22;717;51.522;7.266;2023-08-06T00:17:00;20.90;99.90
1447;DHT22;717;51.522;7.266;2023-08-06T00:19:30;20.90;99.90
1447;DHT22;717;51.522;7.266;2023-08-06T00:22:00;20.90;99.90
1447;DHT22;717;51.522;7.266;2023-08-06T00:24:31;20.90;99.90
1447;DHT22;717;51.522;7.266;2023-08-06T00:27:04;20.90;99.90
1447;DHT22;717;51.522;7.266;2023-08-06T00:29:35;20.90;99.90
1447;DHT22;717;51.522;7.266;2023-08-06T00:32:06;20.90;99.90
1447;DHT22;717;51.522;7.266;2023-08-06T00:34:36;20.90;99.90
1447;DHT22;717;51.522;7.266;2023-08-06T00:37:06;20.90;99.90
1447;DHT22;717;51.522;7.266;2023-08-06T00:39:36;20.90;99.90
1447;DHT22;717;51.522;7.266;2023-08-06T00:42:09;20.90;99.90
1447;DHT22;717;51.522;7.266;2023-08-06T00:44:40;20.90;99.90
1447;DHT22;717;51.522;7.266;2023-08-06T00:47:10;20.90;99.90
1447;DHT22;717;51.522;7.266;2023-08-06T00:49:40;20.90;99.90
1447;DHT22;717;51.522;7.266;2023-08-06T00:52:11;20.90;99.90
1447;DHT22;717;51.522;7.266;2023-08-06T00:54:41;20.90;99.90
1447;DHT22;717;51.522;7.266;2023-08-06T00:57:14;20.90;99.90
1447;DHT22;717;51.522;7.266;2023-08-06T00:59:46;20.90;99.90
1447;DHT22;717;51.522;7.266;2023-08-06T01:02:16;20.90;99.90
1447;DHT22;717;51.522;7.266;2023-08-06T01:04:46;20.80;99.90
1447;DHT22;717;51.522;7.266;2023-08-06T01:07:25;20.80;99.90
1447;DHT22;717;51.522;7.266;2023-08-06T01:10:11;20.80;99.90
1447;DHT22;717;51.522;7.266;2023-08-06T01:12:52;20.90;99.90
1447;DHT22;717;51.522;7.266;2023-08-06T01:15:29;20.80;99.90
1447;DHT22;717;51.522;7.266;2023-08-06T01:18:02;20.90;99.90
1447;DHT22;717;51.522;7.266;2023-08-06T01:20:35;20.90;99.90
1447;DHT22;717;51.522;7.266;2023-08-06T01:23:06;20.80;99.90
1447;DHT22;717;51.522;7.266;2023-08-06T01:25:39;20.80;99.90
1447;DHT22;717;51.522;7.266;2023-08-06T01:28:27;20.90;99.90
1447;DHT22;717;51.522;7.266;2023-08-06T01:31:02;20.80;99.90
1447;DHT22;717;51.522;7.266;2023-08-06T01:33:34;20.80;99.90
1447;DHT22;717;51.522;7.266;2023-08-06T01:36:08;20.90;99.90
1447;DHT22;717;51.522;7.266;2023-08-06T01:38:39;20.80;99.90
1447;DHT22;717;51.522;7.266;2023-08-06T01:41:09;20.90;99.90
1447;DHT22;717;51.522;7.266;2023-08-06T01:43:39;20.90;99.90
1447;DHT22;717;51.522;7.266;2023-08-06T01:46:09;20.90;99.90
1447;DHT22;717;51.522;7.266;2023-08-06T01:48:39;20.90;99.90
1447;DHT22;717;51.522;7.266;2023-08-06T01:51:12;20.90;99.90
1447;DHT22;717;51.522;7.266;2023-08-06T01:53:42;20.90;99.90
1447;DHT22;717;51.522;7.266;2023-08-06T01:56:12;20.90;99.90
1447;DHT22;717;51.522;7.266;2023-08-06T01:58:42;20.90;99.90
1447;DHT22;717;51.522;7.266;2023-08-06T02:01:12;20.90;99.90
1447;DHT22;717;51.522;7.266;2023-08-06T02:03:42;20.90;99.90
1447;DHT22;717;51.522;7.266;2023-08-06T02:06:15;20.90;99.90
1447;DHT22;717;51.522;7.266;2023-08-06T02:08:45;20.90;99.90
1447;DHT22;717;51.522;7.266;2023-08-06T02:11:15;20.90;99.90
1447;DHT22;717;51.522;7.266;2023-08-06T02:13:46;20.90;99.90
1447;DHT22;717;51.522;7.266;2023-08-06T02:16:18;20.90;99.90
1447;DHT22;717;51.522;7.266;2023-08-06T02:18:48;20.90;99.90
1447;DHT22;717;51.522;7.266;2023-08-06T02:21:21;20.90;99.90
1447;DHT22;717;51.522;7.266;2023-08-06T02:23:52;20.90;99.90
1447;DHT22;717;51.522;7.266;2023-08-06T02:26:23;20.90;99.90
1447;DHT22;717;51.522;7.266;2023-08-06T02:28:55;20.80;99.90
1447;DHT22;717;51.522;7.266;2023-08-06T02:31:26;20.90;99.90
1447;DHT22;717;51.522;7.266;2023-08-06T02:33:57;20.90;99.90
1447;DHT22;717;51.522;7.266;2023-08-06T02:36:31;20.90;99.90
1447;DHT22;717;51.522;7.266;2023-08-06T02:39:01;20.90;99.90
1447;DHT22;717;51.522;7.266;2023-08-06T02:41:31;20.90;99.90
1447;DHT22;717;51.522;7.266;2023-08-06T02:44:01;20.90;99.90
1447;DHT22;717;51.522;7.266;2023-08-06T02:46:31;20.90;99.90
1447;DHT22;717;51.522;7.266;2023-08-06T02:49:01;20.90;99.90
1447;DHT22;717;51.522;7.266;2023-08-06T02:51:34;20.90;99.90
1447;DHT22;717;51.522;7.266;2023-08-06T02:54:04;20.80;99.90
1447;DHT22;717;51.522;7.266;2023-08-06T02:56:35;20.80;99.90
1447;DHT22;717;51.522;7.266;2023-08-06T02:59:15;20.80;99.90
1447;DHT22;717;51.522;7.266;2023-08-06T03:02:00;20.80;99.90
1447;DHT22;717;51.522;7.266;2023-08-06T03:04:41;20.80;99.90
1447;DHT22;717;51.522;7.266;2023-08-06T03:07:15;20.80;99.90
1447;DHT22;717;51.522;7.266;2023-08-06T03:09:52;20.80;99.90
1447;DHT22;717;51.522;7.266;2023-08-06T03:12:23;20.80;99.90
1447;DHT22;717;51.522;7.266;2023-08-06T03:14:53;20.80;99.90
1447;DHT22;717;51.522;7.266;2023-08-06T03:17:23;20.80;99.90
1447;DHT22;717;51.522;7.266;2023-08-06T03:19:53;20.80;99.90
1447;DHT22;717;51.522;7.266;2023-08-06T03:22:27;20.80;99.90
1447;DHT22;717;51.522;7.266;2023-08-06T03:24:57;20.80;99.90
1447;DHT22;717;51.522;7.266;2023-08-06T03:27:27;20.70;99.90
1447;DHT22;717;51.522;7.266;2023-08-06T03:29:57;20.80;99.90
1447;DHT22;717;51.522;7.266;2023-08-06T03:32:28;20.70;99.90
1447;DHT22;717;51.522;7.266;2023-08-06T03:34:59;20.70;99.90
1447;DHT22;717;51.522;7.266;2023-08-06T03:37:33;20.70;99.90
1447;DHT22;717;51.522;7.266;2023-08-06T03:40:04;20.70;99.90
1447;DHT22;717;51.522;7.266;2023-08-06T03:42:34;20.70;99.90
1447;DHT22;717;51.522;7.266;2023-08-06T03:45:06;20.70;99.90
1447;DHT22;717;51.522;7.266;2023-08-06T03:47:38;20.70;99.90
1447;DHT22;717;51.522;7.266;2023-08-06T03:50:09;20.70;99.90
1447;DHT22;717;51.522;7.266;2023-08-06T03:52:41;20.70;99.90
1447;DHT22;717;51.522;7.266;2023-08-06T03:55:12;20.70;99.90
1447;DHT22;717;51.522;7.266;2023-08-06T03:57:42;20.70;99.90
1447;DHT22;717;51.522;7.266;2023-08-06T04:00:12;20.70;99.90
1447;DHT22;717;51.522;7.266;2023-08-06T04:02:46;20.60;99.90
1447;DHT22;717;51.522;7.266;2023-08-06T04:05:17;20.60;99.90
1447;DHT22;717;51.522;7.266;2023-08-06T04:07:50;20.60;99.90
1447;DHT22;717;51.522;7.266;2023-08-06T04:10:20;20.60;99.90
1447;DHT22;717;51.522;7.266;2023-08-06T04:12:49;20.70;99.90
1447;DHT22;717;51.522;7.266;2023-08-06T04:15:20;20.60;99.90
1447;DHT22;717;51.522;7.266;2023-08-06T04:17:50;20.60;99.90
1447;DHT22;717;51.522;7.266;2023-08-06T04:20:20;20.60;99.90
1447;DHT22;717;51.522;7.266;2023-08-06T04:22:54;20.60;99.90
1447;DHT22;717;51.522;7.266;2023-08-06T04:25:24;20.60;99.90
1447;DHT22;717;51.522;7.266;2023-08-06T04:27:55;20.60;99.90
1447;DHT22;717;51.522;7.266;2023-08-06T04:30:25;20.60;99.90
1447;DHT22;717;51.522;7.266;2023-08-06T04:32:56;20.60;99.90
1447;DHT22;717;51.522;7.266;2023-08-06T04:35:27;20.60;99.90
1447;DHT22;717;51.522;7.266;2023-08-06T04:38:00;20.60;99.90
1447;DHT22;717;51.522;7.266;2023-08-06T04:40:32;20.60;99.90
1447;DHT22;717;51.522;7.266;2023-08-06T04:43:03;20.60;99.90
1447;DHT22;717;51.522;7.266;2023-08-06T04:45:34;20.60;99.90
1447;DHT22;717;51.522;7.266;2023-08-06T04:48:04;20.60;99.90
1447;DHT22;717;51.522;7.266;2023-08-06T04:50:35;20.60;99.90
1447;DHT22;717;51.522;7.266;2023-08-06T04:53:07;20.60;99.90
1447;DHT22;717;51.522;7.266;2023-08-06T04:55:38;20.70;99.90
1447;DHT22;717;51.522;7.266;2023-08-06T04:58:09;20.60;99.90
1447;DHT22;717;51.522;7.266;2023-08-06T05:00:39;20.70;99.90
1447;DHT22;717;51.522;7.266;2023-08-06T05:03:10;20.70;99.90
1447;DHT22;717;51.522;7.266;2023-08-06T05:05:40;20.70;99.90
1447;DHT22;717;51.522;7.266;2023-08-06T05:08:16;20.70;99.90
1447;DHT22;717;51.522;7.266;2023-08-06T05:10:46;20.70;99.90
1447;DHT22;717;51.522;7.266;2023-08-06T05:13:17;20.70;99.90
1447;DHT22;717;51.522;7.266;2023-08-06T05:15:47;20.70;99.90
1447;DHT22;717;51.522;7.266;2023-08-06T05:18:17;20.70;99.90
1447;DHT22;717;51.522;7.266;2023-08-06T05:20:48;20.70;99.90
1447;DHT22;717;51.522;7.266;2023-08-06T05:23:20;20.70;99.90
1447;DHT22;717;51.522;7.266;2023-08-06T05:25:50;20.80;99.90
1447;DHT22;717;51.522;7.266;2023-08-06T05:28:20;20.80;99.90
1447;DHT22;717;51.522;7.266;2023-08-06T05:30:50;20.80;99.90
1447;DHT22;717;51.522;7.266;2023-08-06T05:33:21;20.70;99.90
1447;DHT22;717;51.522;7.266;2023-08-06T05:35:51;20.80;99.90
1447;DHT22;717;51.522;7.266;2023-08-06T05:38:23;20.80;99.90
1447;DHT22;717;51.522;7.266;2023-08-06T05:40:54;20.80;99.90
1447;DHT22;717;51.522;7.266;2023-08-06T05:43:23;20.80;99.90
1447;DHT22;717;51.522;7.266;2023-08-06T05:45:55;20.80;99.90
1447;DHT22;717;51.522;7.266;2023-08-06T05:48:26;20.80;99.90
1447;DHT22;717;51.522;7.266;2023-08-06T05:50:56;20.80;99.90
1447;DHT22;717;51.522;7.266;2023-08-06T05:53:29;20.80;99.90
1447;DHT22;717;51.522;7.266;2023-08-06T05:55:59;20.80;99.90
1447;DHT22;717;51.522;7.266;2023-08-06T05:58:29;20.80;99.90
1447;DHT22;717;51.522;7.266;2023-08-06T06:00:59;20.80;99.90
1447;DHT22;717;51.522;7.266;2023-08-06T06:03:29;20.80;99.90
1447;DHT22;717;51.522;7.266;2023-08-06T06:06:01;20.80;99.90
1447;DHT22;717;51.522;7.266;2023-08-06T06:08:34;20.80;99.90
1447;DHT22;717;51.522;7.266;2023-08-06T06:11:04;20.80;99.90
1447;DHT22;717;51.522;7.266;2023-08-06T06:13:34;20.80;99.90
1447;DHT22;717;51.522;7.266;2023-08-06T06:16:04;20.80;99.90
1447;DHT22;717;51.522;7.266;2023-08-06T06:18:35;20.80;99.90
1447;DHT22;717;51.522;7.266;2023-08-06T06:21:05;20.80;99.90
1447;DHT22;717;51.522;7.266;2023-08-06T06:23:37;20.90;99.90
1447;DHT22;717;51.522;7.266;2023-08-06T06:26:07;20.80;99.90
1447;DHT22;717;51.522;7.266;2023-08-06T06:28:37;20.80;99.90
1447;DHT22;717;51.522;7.266;2023-08-06T06:31:10;20.80;99.90
1447;DHT22;717;51.522;7.266;2023-08-06T06:33:40;20.80;99.90
1447;DHT22;717;51.522;7.266;2023-08-06T06:36:10;20.90;99.90
1447;DHT22;717;51.522;7.266;2023-08-06T06:38:43;20.90;99.90
1447;DHT22;717;51.522;7.266;2023-08-06T06:41:13;20.90;99.90
1447;DHT22;717;51.522;7.266;2023-08-06T06:43:43;20.90;99.90
1447;DHT22;717;51.522;7.266;2023-08-06T06:46:14;20.90;99.90
1447;DHT22;717;51.522;7.266;2023-08-06T06:48:44;21.00;99.90
1447;DHT22;717;51.522;7.266;2023-08-06T06:51:14;20.90;99.90
1447;DHT22;717;51.522;7.266;2023-08-06T06:53:47;20.90;99.90
1447;DHT22;717;51.522;7.266;2023-08-06T06:56:17;20.90;99.90
1447;DHT22;717;51.522;7.266;2023-08-06T06:58:48;21.00;99.90
1447;DHT22;717;51.522;7.266;2023-08-06T07:01:18;20.90;99.90
1447;DHT22;717;51.522;7.266;2023-08-06T07:03:48;21.00;99.90
1447;DHT22;717;51.522;7.266;2023-08-06T07:06:18;20.90;99.90
1447;DHT22;717;51.522;7.266;2023-08-06T07:08:51;21.00;99.90
1447;DHT22;717;51.522;7.266;2023-08-06T07:11:21;21.00;99.90
1447;DHT22;717;51.522;7.266;2023-08-06T07:13:56;21.00;99.90
1447;DHT22;717;51.522;7.266;2023-08-06T07:16:26;21.00;99.90
1447;DHT22;717;51.522;7.266;2023-08-06T07:18:56;21.00;99.90
1447;DHT22;717;51.522;7.266;2023-08-06T07:21:27;21.00;99.90
1447;DHT22;717;51.522;7.266;2023-08-06T07:23:59;21.00;99.90
1447;DHT22;717;51.522;7.266;2023-08-06T07:26:29;21.00;99.90
1447;DHT22;717;51.522;7.266;2023-08-06T07:29:00;21.00;99.90
1447;DHT22;717;51.522;7.266;2023-08-06T07:31:30;21.00;99.90
1447;DHT22;717;51.522;7.266;2023-08-06T07:34:00;21.00;99.90
1447;DHT22;717;51.522;7.266;2023-08-06T07:36:30;21.00;99.90
1447;DHT22;717;51.522;7.266;2023-08-06T07:39:03;21.00;99.90
1447;DHT22;717;51.522;7.266;2023-08-06T07:41:34;21.00;99.90
1447;DHT22;717;51.522;7.266;2023-08-06T07:44:04;21.00;99.90
1447;DHT22;717;51.522;7.266;2023-08-06T07:46:35;21.00;99.90
1447;DHT22;717;51.522;7.266;2023-08-06T07:49:06;21.00;99.90
1447;DHT22;717;51.522;7.266;2023-08-06T07:51:36;21.00;99.90
1447;DHT22;717;51.522;7.266;2023-08-06T07:54:08;21.00;99.90
1447;DHT22;717;51.522;7.266;2023-08-06T07:56:39;21.00;99.90
1447;DHT22;717;51.522;7.266;2023-08-06T07:59:09;21.00;99.90
1447;DHT22;717;51.522;7.266;2023-08-06T08:01:39;21.00;99.90
1447;DHT22;717;51.522;7.266;2023-08-06T08:04:09;21.00;99.90
1447;DHT22;717;51.522;7.266;2023-08-06T08:06:39;21.10;99.90
1447;DHT22;717;51.522;7.266;2023-08-06T08:09:12;21.10;99.90
1447;DHT22;717;51.522;7.266;2023-08-06T08:11:42;21.10;99.90
1447;DHT22;717;51.522;7.266;2023-08-06T08:14:13;21.10;99.90
1447;DHT22;717;51.522;7.266;2023-08-06T08:16:43;21.10;99.90
1447;DHT22;717;51.522;7.266;2023-08-06T08:19:13;21.10;99.90
1447;DHT22;717;51.522;7.266;2023-08-06T08:21:43;21.10;99.90
1447;DHT22;717;51.522;7.266;2023-08-06T08:24:16;21.10;99.90
1447;DHT22;717;51.522;7.266;2023-08-06T08:26:46;21.10;99.90
1447;DHT22;717;51.522;7.266;2023-08-06T08:29:17;21.10;99.90
1447;DHT22;717;51.522;7.266;2023-08-06T08:31:47;21.20;99.90
1447;DHT22;717;51.522;7.266;2023-08-06T08:34:18;21.20;99.90
1447;DHT22;717;51.522;7.266;2023-08-06T08:36:48;21.20;99.90
1447;DHT22;717;51.522;7.266;2023-08-06T08:39:20;21.20;99.90
1447;DHT22;717;51.522;7.266;2023-08-06T08:41:50;21.20;99.90
1447;DHT22;717;51.522;7.266;2023-08-06T08:44:21;21.20;99.90
1447;DHT22;717;51.522;7.266;2023-08-06T08:46:55;21.20;99.90
1447;DHT22;717;51.522;7.266;2023-08-06T08:49:26;21.20;99.90
1447;DHT22;717;51.522;7.266;2023-08-06T08:51:58;21.20;99.90
1447;DHT22;717;51.522;7.266;2023-08-06T08:54:33;21.20;99.90
1447;DHT22;717;51.522;7.266;2023-08-06T08:57:04;21.30;99.90
1447;DHT22;717;51.522;7.266;2023-08-06T08:59:34;21.30;99.90
1447;DHT22;717;51.522;7.266;2023-08-06T09:02:05;21.30;99.90
1447;DHT22;717;51.522;7.266;2023-08-06T09:04:35;21.30;99.90
1447;DHT22;717;51.522;7.266;2023-08-06T09:07:06;21.30;99.90
1447;DHT22;717;51.522;7.266;2023-08-06T09:09:41;21.30;99.90
1447;DHT22;717;51.522;7.266;2023-08-06T09:13:02;21.30;99.90
1447;DHT22;717;51.522;7.266;2023-08-06T09:15:43;21.30;99.90
1447;DHT22;717;51.522;7.266;2023-08-06T09:18:28;21.30;99.90
1447;DHT22;717;51.522;7.266;2023-08-06T09:20:59;21.30;99.90
1447;DHT22;717;51.522;7.266;2023-08-06T09:23:30;21.30;99.90
1447;DHT22;717;51.522;7.266;2023-08-06T09:26:03;21.40;99.90
1447;DHT22;717;51.522;7.266;2023-08-06T09:28:37;21.40;99.90
1447;DHT22;717;51.522;7.266;2023-08-06T09:31:10;21.30;99.90
1447;DHT22;717;51.522;7.266;2023-08-06T09:33:41;21.40;99.90
1447;DHT22;717;51.522;7.266;2023-08-06T09:36:12;21.40;99.90
1447;DHT22;717;51.522;7.266;2023-08-06T09:38:42;21.40;99.90
1447;DHT22;717;51.522;7.266;2023-08-06T09:41:26;21.40;99.90
1447;DHT22;717;51.522;7.266;2023-08-06T09:43:56;21.40;99.90
1447;DHT22;717;51.522;7.266;2023-08-06T09:46:28;21.40;99.90
1447;DHT22;717;51.522;7.266;2023-08-06T09:49:01;21.40;99.90
1447;DHT22;717;51.522;7.266;2023-08-06T09:51:35;21.40;99.90
1447;DHT22;717;51.522;7.266;2023-08-06T09:54:07;21.40;99.90
1447;DHT22;717;51.522;7.266;2023-08-06T09:56:56;21.40;99.90
1447;DHT22;717;51.522;7.266;2023-08-06T09:59:26;21.40;99.90
1447;DHT22;717;51.522;7.266;2023-08-06T10:01:57;21.40;99.90
1447;DHT22;717;51.522;7.266;2023-08-06T10:04:29;21.40;99.90
1447;DHT22;717;51.522;7.266;2023-08-06T10:07:08;21.40;99.90
1447;DHT22;717;51.522;7.266;2023-08-06T10:09:40;21.40;99.90
1447;DHT22;717;51.522;7.266;2023-08-06T10:12:14;21.40;99.90
1447;DHT22;717;51.522;7.266;2023-08-06T10:15:11;21.40;99.90
1447;DHT22;717;51.522;7.266;2023-08-06T10:17:47;21.50;99.90
1447;DHT22;717;51.522;7.266;2023-08-06T10:20:36;21.50;99.90
1447;DHT22;717;51.522;7.266;2023-08-06T10:23:06;21.50;99.90
1447;DHT22;717;51.522;7.266;2023-08-06T10:25:41;21.40;99.90
1447;DHT22;717;51.522;7.266;2023-08-06T10:28:14;21.50;99.90
1447;DHT22;717;51.522;7.266;2023-08-06T10:30:46;21.50;99.90
1447;DHT22;717;51.522;7.266;2023-08-06T10:33:19;21.50;99.90
1447;DHT22;717;51.522;7.266;2023-08-06T10:35:50;21.50;99.90
1447;DHT22;717;51.522;7.266;2023-08-06T10:38:25;21.50;99.90
1447;DHT22;717;51.522;7.266;2023-08-06T10:41:02;21.60;99.90
1447;DHT22;717;51.522;7.266;2023-08-06T10:43:36;21.60;99.90
1447;DHT22;717;51.522;7.266;2023-08-06T10:46:09;21.60;99.90
1447;DHT22;717;51.522;7.266;2023-08-06T10:48:41;21.60;99.90
1447;DHT22;717;51.522;7.266;2023-08-06T10:51:12;21.60;99.90
1447;DHT22;717;51.522;7.266;2023-08-06T10:53:44;21.60;99.90
1447;DHT22;717;51.522;7.266;2023-08-06T10:56:15;21.60;99.90
1447;DHT22;717;51.522;7.266;2023-08-06T10:58:48;21.60;99.90
1447;DHT22;717;51.522;7.266;2023-08-06T11:01:19;21.60;99.90
1447;DHT22;717;51.522;7.266;2023-08-06T11:03:50;21.60;99.90
1447;DHT22;717;51.522;7.266;2023-08-06T11:06:22;21.70;99.90
1447;DHT22;717;51.522;7.266;2023-08-06T11:08:54;21.70;99.90
1447;DHT22;717;51.522;7.266;2023-08-06T11:11:24;21.70;99.90
1447;DHT22;717;51.522;7.266;2023-08-06T11:13:57;21.70;99.90
1447;DHT22;717;51.522;7.266;2023-08-06T11:16:27;21.70;99.90
1447;DHT22;717;51.522;7.266;2023-08-06T11:18:58;21.70;99.90
1447;DHT22;717;51.522;7.266;2023-08-06T11:21:28;21.80;99.90
1447;DHT22;717;51.522;7.266;2023-08-06T11:23:58;21.70;99.90
1447;DHT22;717;51.522;7.266;2023-08-06T11:26:29;21.80;99.90
1447;DHT22;717;51.522;7.266;2023-08-06T11:29:02;21.80;99.90
1447;DHT22;717;51.522;7.266;2023-08-06T11:31:33;21.70;99.90
1447;DHT22;717;51.522;7.266;2023-08-06T11:34:05;21.80;99.90
1447;DHT22;717;51.522;7.266;2023-08-06T11:36:40;21.80;99.90
1447;DHT22;717;51.522;7.266;2023-08-06T11:39:11;21.80;99.90
1447;DHT22;717;51.522;7.266;2023-08-06T11:41:41;21.80;99.90
1447;DHT22;717;51.522;7.266;2023-08-06T11:44:15;21.80;99.90
1447;DHT22;717;51.522;7.266;2023-08-06T11:46:51;21.80;99.90
1447;DHT22;717;51.522;7.266;2023-08-06T11:49:38;21.70;99.90
1447;DHT22;717;51.522;7.266;2023-08-06T11:52:10;21.70;99.90
1447;DHT22;717;51.522;7.266;2023-08-06T11:54:41;21.70;99.90
1447;DHT22;717;51.522;7.266;2023-08-06T11:57:12;21.70;99.90
1447;DHT22;717;51.522;7.266;2023-08-06T11:59:47;21.70;99.90
1447;DHT22;717;51.522;7.266;2023-08-06T12:02:17;21.70;99.90
1447;DHT22;717;51.522;7.266;2023-08-06T12:05:04;21.70;99.90
1447;DHT22;717;51.522;7.266;2023-08-06T12:07:37;21.70;99.90
1447;DHT22;717;51.522;7.266;2023-08-06T12:10:09;21.70;99.90
1447;DHT22;717;51.522;7.266;2023-08-06T12:12:39;21.60;99.90
1447;DHT22;717;51.522;7.266;2023-08-06T12:15:12;21.60;99.90
1447;DHT22;717;51.522;7.266;2023-08-06T12:17:42;21.60;99.90
1447;DHT22;717;51.522;7.266;2023-08-06T12:20:13;21.60;99.90
1447;DHT22;717;51.522;7.266;2023-08-06T12:22:43;21.60;99.90
1447;DHT22;717;51.522;7.266;2023-08-06T12:25:13;21.60;99.90
1447;DHT22;717;51.522;7.266;2023-08-06T12:27:44;21.50;99.90
1447;DHT22;717;51.522;7.266;2023-08-06T12:30:17;21.50;99.90
1447;DHT22;717;51.522;7.266;2023-08-06T12:32:47;21.50;99.90
1447;DHT22;717;51.522;7.266;2023-08-06T12:35:18;21.40;99.90
1447;DHT22;717;51.522;7.266;2023-08-06T12:37:49;21.40;99.90
1447;DHT22;717;51.522;7.266;2023-08-06T12:40:21;21.40;99.90
1447;DHT22;717;51.522;7.266;2023-08-06T12:43:03;21.30;99.90
1447;DHT22;717;51.522;7.266;2023-08-06T12:45:36;21.20;99.90
1447;DHT22;717;51.522;7.266;2023-08-06T12:48:06;21.20;99.90
1447;DHT22;717;51.522;7.266;2023-08-06T12:50:36;21.20;99.90
1447;DHT22;717;51.522;7.266;2023-08-06T12:53:06;21.00;99.90
1447;DHT22;717;51.522;7.266;2023-08-06T12:55:45;20.90;99.90
1447;DHT22;717;51.522;7.266;2023-08-06T12:58:16;20.80;99.90
1447;DHT22;717;51.522;7.266;2023-08-06T13:00:49;20.80;99.90
1447;DHT22;717;51.522;7.266;2023-08-06T13:03:19;20.70;99.90
1447;DHT22;717;51.522;7.266;2023-08-06T13:05:49;20.60;99.90
1447;DHT22;717;51.522;7.266;2023-08-06T13:08:20;20.40;99.90
1447;DHT22;717;51.522;7.266;2023-08-06T13:10:50;20.20;99.90
1447;DHT22;717;51.522;7.266;2023-08-06T13:13:20;20.00;99.90
1447;DHT22;717;51.522;7.266;2023-08-06T13:15:56;19.80;99.90
1447;DHT22;717;51.522;7.266;2023-08-06T13:18:26;19.80;99.90
1447;DHT22;717;51.522;7.266;2023-08-06T13:20:58;19.80;99.90
1447;DHT22;717;51.522;7.266;2023-08-06T13:23:28;19.70;99.90
1447;DHT22;717;51.522;7.266;2023-08-06T13:25:58;19.60;99.90
1447;DHT22;717;51.522;7.266;2023-08-06T13:28:28;19.60;99.90
1447;DHT22;717;51.522;7.266;2023-08-06T13:31:01;19.60;99.90
1447;DHT22;717;51.522;7.266;2023-08-06T13:33:31;19.60;99.90
1447;DHT22;717;51.522;7.266;2023-08-06T13:36:02;19.50;99.90
1447;DHT22;717;51.522;7.266;2023-08-06T13:38:32;19.50;99.90
1447;DHT22;717;51.522;7.266;2023-08-06T13:41:02;19.60;99.90
1447;DHT22;717;51.522;7.266;2023-08-06T13:43:33;19.50;99.90
1447;DHT22;717;51.522;7.266;2023-08-06T13:46:06;19.30;99.90
1447;DHT22;717;51.522;7.266;2023-08-06T13:48:36;19.30;99.90
1447;DHT22;717;51.522;7.266;2023-08-06T13:51:06;19.20;99.90
1447;DHT22;717;51.522;7.266;2023-08-06T13:53:36;19.30;99.90
1447;DHT22;717;51.522;7.266;2023-08-06T13:56:08;19.20;99.90
1447;DHT22;717;51.522;7.266;2023-08-06T13:58:38;19.30;99.90
1447;DHT22;717;51.522;7.266;2023-08-06T14:01:12;19.30;99.90
1447;DHT22;717;51.522;7.266;2023-08-06T14:03:43;19.20;99.90
1447;DHT22;717;51.522;7.266;2023-08-06T14:06:13;19.20;99.90
1447;DHT22;717;51.522;7.266;2023-08-06T14:08:43;19.20;99.90
1447;DHT22;717;51.522;7.266;2023-08-06T14:11:13;19.20;99.90
1447;DHT22;717;51.522;7.266;2023-08-06T14:13:44;19.30;99.90
1447;DHT22;717;51.522;7.266;2023-08-06T14:16:16;19.30;99.90
1447;DHT22;717;51.522;7.266;2023-08-06T14:18:47;19.30;99.90
1447;DHT22;717;51.522;7.266;2023-08-06T14:21:17;19.20;99.90
1447;DHT22;717;51.522;7.266;2023-08-06T14:23:48;19.20;99.90
1447;DHT22;717;51.522;7.266;2023-08-06T14:26:18;19.20;99.90
1447;DHT22;717;51.522;7.266;2023-08-06T14:28:48;19.20;99.90
1447;DHT22;717;51.522;7.266;2023-08-06T14:31:24;19.20;99.90
1447;DHT22;717;51.522;7.266;2023-08-06T14:33:54;19.20;99.90
1447;DHT22;717;51.522;7.266;2023-08-06T14:36:25;19.30;99.90
1447;DHT22;717;51.522;7.266;2023-08-06T14:38:55;19.30;99.90
1447;DHT22;717;51.522;7.266;2023-08-06T14:41:26;19.30;99.90
1447;DHT22;717;51.522;7.266;2023-08-06T14:43:57;19.40;99.90
1447;DHT22;717;51.522;7.266;2023-08-06T14:46:29;19.50;99.90
1447;DHT22;717;51.522;7.266;2023-08-06T14:48:59;19.50;99.90
1447;DHT22;717;51.522;7.266;2023-08-06T14:51:30;19.50;99.90
1447;DHT22;717;51.522;7.266;2023-08-06T14:54:01;19.40;99.90
1447;DHT22;717;51.522;7.266;2023-08-06T14:56:32;19.40;99.90
1447;DHT22;717;51.522;7.266;2023-08-06T14:59:02;19.40;99.90
1447;DHT22;717;51.522;7.266;2023-08-06T15:01:35;19.50;99.90
1447;DHT22;717;51.522;7.266;2023-08-06T15:04:05;19.60;99.90
1447;DHT22;717;51.522;7.266;2023-08-06T15:06:35;19.60;99.90
1447;DHT22;717;51.522;7.266;2023-08-06T15:09:05;19.60;99.90
1447;DHT22;717;51.522;7.266;2023-08-06T15:11:35;19.60;99.90
1447;DHT22;717;51.522;7.266;2023-08-06T15:14:05;19.60;99.90
1447;DHT22;717;51.522;7.266;2023-08-06T15:16:38;19.60;99.90
1447;DHT22;717;51.522;7.266;2023-08-06T15:19:08;19.50;99.90
1447;DHT22;717;51.522;7.266;2023-08-06T15:21:38;19.50;99.90
1447;DHT22;717;51.522;7.266;2023-08-06T15:24:11;19.40;99.90
1447;DHT22;717;51.522;7.266;2023-08-06T15:26:41;19.30;99.90
1447;DHT22;717;51.522;7.266;2023-08-06T15:29:11;19.30;99.90
1447;DHT22;717;51.522;7.266;2023-08-06T15:31:43;19.20;99.90
1447;DHT22;717;51.522;7.266;2023-08-06T15:34:14;19.20;99.90
1447;DHT22;717;51.522;7.266;2023-08-06T15:36:44;19.20;99.90
1447;DHT22;717;51.522;7.266;2023-08-06T15:39:14;19.20;99.90
1447;DHT22;717;51.522;7.266;2023-08-06T15:41:44;19.20;99.90
1447;DHT22;717;51.522;7.266;2023-08-06T15:44:14;19.10;99.90
1447;DHT22;717;51.522;7.266;2023-08-06T15:46:47;19.20;99.90
1447;DHT22;717;51.522;7.266;2023-08-06T15:49:18;19.20;99.90
1447;DHT22;717;51.522;7.266;2023-08-06T15:51:48;19.30;99.90
1447;DHT22;717;51.522;7.266;2023-08-06T15:54:20;19.20;99.90
1447;DHT22;717;51.522;7.266;2023-08-06T15:56:50;19.20;99.90
1447;DHT22;717;51.522;7.266;2023-08-06T15:59:21;19.20;99.90
1447;DHT22;717;51.522;7.266;2023-08-06T16:01:54;19.20;99.90
1447;DHT22;717;51.522;7.266;2023-08-06T16:04:25;19.30;99.90
1447;DHT22;717;51.522;7.266;2023-08-06T16:06:56;19.30;99.90
1447;DHT22;717;51.522;7.266;2023-08-06T16:09:26;19.30;99.90
1447;DHT22;717;51.522;7.266;2023-08-06T16:11:56;19.40;99.90
1447;DHT22;717;51.522;7.266;2023-08-06T16:14:27;19.40;99.90
1447;DHT22;717;51.522;7.266;2023-08-06T16:16:59;19.40;99.90
1447;DHT22;717;51.522;7.266;2023-08-06T16:19:29;19.40;99.90
1447;DHT22;717;51.522;7.266;2023-08-06T16:21:59;19.40;99.90
1447;DHT22;717;51.522;7.266;2023-08-06T16:24:30;19.40;99.90
1447;DHT22;717;51.522;7.266;2023-08-06T16:27:04;19.50;99.90
1447;DHT22;717;51.522;7.266;2023-08-06T16:29:35;19.50;99.90
1447;DHT22;717;51.522;7.266;2023-08-06T16:32:09;19.50;99.90
1447;DHT22;717;51.522;7.266;2023-08-06T16:34:39;19.50;99.90
1447;DHT22;717;51.522;7.266;2023-08-06T16:37:09;19.40;99.90
1447;DHT22;717;51.522;7.266;2023-08-06T16:39:40;19.40;99.90
1447;DHT22;717;51.522;7.266;2023-08-06T16:42:11;19.30;99.90
1447;DHT22;717;51.522;7.266;2023-08-06T16:44:42;19.30;99.90
1447;DHT22;717;51.522;7.266;2023-08-06T16:47:15;19.20;99.90